createdAt,value
2023-04-02T00:00:18.242Z,99303.88
2023-04-02T00:03:22.371Z,99305.66
2023-04-02T00:06:33.158Z,99309.75
2023-04-02T00:09:39.278Z,99302.84
2023-04-02T00:13:04.750Z,99292.88
2023-04-02T00:16:12.337Z,99309.81
2023-04-02T00:19:32.237Z,99311.00
2023-04-02T00:22:35.211Z,99304.50
2023-04-02T00:25:43.204Z,99300.44
2023-04-02T00:28:46.061Z,99304.09
2023-04-02T00:31:51.617Z,99300.94
2023-04-02T00:34:55.762Z,99288.75
2023-04-02T00:37:58.702Z,99290.03
2023-04-02T00:41:07.558Z,99300.63
2023-04-02T00:44:21.997Z,99302.41
2023-04-02T00:47:27.109Z,99305.75
2023-04-02T00:50:40.024Z,99309.91
2023-04-02T00:53:46.680Z,99305.22
2023-04-02T00:56:54.528Z,99304.09
2023-04-02T01:00:08.902Z,99313.34
2023-04-02T01:03:17.728Z,99314.22
2023-04-02T01:06:22.242Z,99315.44
2023-04-02T01:09:30.356Z,99307.63
2023-04-02T01:12:54.172Z,99314.59
2023-04-02T01:16:36.863Z,99319.38
2023-04-02T01:20:01.108Z,99318.78
2023-04-02T01:23:25.689Z,99323.44
2023-04-02T01:26:33.949Z,99329.31
2023-04-02T01:29:40.412Z,99318.16
2023-04-02T01:32:43.927Z,99314.88
2023-04-02T01:35:55.483Z,99320.38
2023-04-02T01:39:20.792Z,99328.13
2023-04-02T01:42:33.380Z,99326.81
2023-04-02T01:45:37.769Z,99318.56
2023-04-02T01:48:41.378Z,99333.47
2023-04-02T01:51:47.055Z,99331.25
2023-04-02T01:54:52.886Z,99331.66
2023-04-02T01:57:56.686Z,99345.16
2023-04-02T02:01:04.187Z,99351.34
2023-04-02T02:04:12.750Z,99344.97
2023-04-02T02:07:18.645Z,99350.53
2023-04-02T02:10:43.561Z,99350.06
2023-04-02T02:13:55.270Z,99352.00
2023-04-02T02:17:02.517Z,99350.03
2023-04-02T02:20:11.389Z,99350.00
2023-04-02T02:23:14.698Z,99358.25
2023-04-02T02:26:18.735Z,99352.31
2023-04-02T02:29:23.573Z,99343.03
2023-04-02T02:32:29.909Z,99354.34
2023-04-02T02:36:27.288Z,99351.72
2023-04-02T02:39:38.204Z,99346.31
2023-04-02T02:42:48.286Z,99353.88
2023-04-02T02:45:54.059Z,99354.66
2023-04-02T02:48:58.805Z,99359.66
2023-04-02T02:52:10.689Z,99358.56
2023-04-02T02:55:38.108Z,99350.84
2023-04-02T02:58:53.770Z,99348.38
2023-04-02T03:02:02.209Z,99347.03
2023-04-02T03:05:05.790Z,99346.31
2023-04-02T03:08:19.441Z,99359.25
2023-04-02T03:11:27.014Z,99356.31
2023-04-02T03:14:35.576Z,99365.56
2023-04-02T03:17:53.350Z,99370.50
2023-04-02T03:21:00.987Z,99356.94
2023-04-02T03:24:12.378Z,99358.88
2023-04-02T03:27:18.405Z,99357.31
2023-04-02T03:30:47.140Z,99360.25
2023-04-02T03:34:04.369Z,99357.69
2023-04-02T03:37:47.295Z,99373.31
2023-04-02T03:41:03.584Z,99363.03
2023-04-02T03:44:22.152Z,99365.25
2023-04-02T03:47:38.883Z,99374.06
2023-04-02T03:50:59.077Z,99370.13
2023-04-02T03:54:02.645Z,99374.97
2023-04-02T03:57:15.893Z,99378.69
2023-04-02T04:00:34.378Z,99371.63
2023-04-02T04:03:42.442Z,99381.81
2023-04-02T04:06:52.497Z,99386.13
2023-04-02T04:09:56.377Z,99385.06
2023-04-02T04:13:12.551Z,99382.84
2023-04-02T04:16:22.646Z,99394.69
2023-04-02T04:19:38.308Z,99398.44
2023-04-02T04:22:41.601Z,99397.84
2023-04-02T04:26:24.700Z,99397.69
2023-04-02T04:29:45.529Z,99402.94
2023-04-02T04:33:05.162Z,99406.88
2023-04-02T04:36:28.738Z,99413.69
2023-04-02T04:40:22.568Z,99412.19
2023-04-02T04:43:58.014Z,99412.25
2023-04-02T04:47:31.204Z,99413.16
2023-04-02T04:50:46.688Z,99398.16
2023-04-02T04:53:53.710Z,99403.69
2023-04-02T04:57:02.850Z,99403.44
2023-04-02T05:00:17.456Z,99410.13
2023-04-02T05:03:31.703Z,99401.56
2023-04-02T05:06:45.627Z,99404.53
2023-04-02T05:10:09.618Z,99399.84
2023-04-02T05:13:41.628Z,99410.13
2023-04-02T05:17:07.189Z,99418.38
2023-04-02T05:20:21.416Z,99416.09
2023-04-02T05:24:02.659Z,99423.09
2023-04-02T05:27:15.767Z,99427.22
2023-04-02T05:30:46.753Z,99414.81
2023-04-02T05:33:51.259Z,99419.38
2023-04-02T05:36:55.756Z,99422.72
2023-04-02T05:40:06.757Z,99428.25
2023-04-02T05:43:15.576Z,99424.66
2023-04-02T05:46:27.373Z,99437.53
2023-04-02T05:49:54.790Z,99444.56
2023-04-02T05:53:09.798Z,99444.47
2023-04-02T05:56:25.227Z,99448.13
2023-04-02T05:59:44.806Z,99444.84
2023-04-02T06:03:07.636Z,99442.53
2023-04-02T06:06:19.256Z,99455.41
2023-04-02T06:09:28.118Z,99447.75
2023-04-02T06:12:31.127Z,99454.72
2023-04-02T06:15:37.285Z,99453.75
2023-04-02T06:18:47.402Z,99451.41
2023-04-02T06:21:53.224Z,99446.53
2023-04-02T06:25:05.049Z,99452.69
2023-04-02T06:28:19.599Z,99455.00
2023-04-02T06:31:52.463Z,99452.16
2023-04-02T06:34:57.194Z,99459.97
2023-04-02T06:38:02.654Z,99468.06
2023-04-02T06:41:19.733Z,99469.16
2023-04-02T06:44:46.744Z,99448.69
2023-04-02T06:48:04.438Z,99461.88
2023-04-02T06:51:21.249Z,99469.16
2023-04-02T06:54:24.518Z,99476.19
2023-04-02T06:57:35.792Z,99481.75
2023-04-02T07:00:43.173Z,99481.97
2023-04-02T07:03:50.594Z,99488.91
2023-04-02T07:07:10.946Z,99466.75
2023-04-02T07:10:19.614Z,99466.00
2023-04-02T07:13:24.534Z,99480.84
2023-04-02T07:16:31.061Z,99469.53
2023-04-02T07:19:34.023Z,99470.81
2023-04-02T07:22:37.037Z,99469.34
2023-04-02T07:25:40.195Z,99473.69
2023-04-02T07:28:43.481Z,99471.16
2023-04-02T07:31:46.558Z,99476.59
2023-04-02T07:34:49.246Z,99485.03
2023-04-02T07:37:52.979Z,99486.88
2023-04-02T07:40:55.900Z,99482.66
2023-04-02T07:43:58.876Z,99489.84
2023-04-02T07:47:01.711Z,99492.66
2023-04-02T07:50:05.269Z,99493.97
2023-04-02T07:53:09.711Z,99494.31
2023-04-02T07:56:15.416Z,99495.78
2023-04-02T07:59:18.130Z,99507.84
2023-04-02T08:02:22.060Z,99503.44
2023-04-02T08:05:24.788Z,99502.50
2023-04-02T08:08:27.497Z,99507.13
2023-04-02T08:11:31.787Z,99506.41
2023-04-02T08:14:34.556Z,99517.25
2023-04-02T08:17:37.370Z,99516.75
2023-04-02T08:20:40.170Z,99522.59
2023-04-02T08:23:44.058Z,99524.94
2023-04-02T08:26:47.958Z,99511.03
2023-04-02T08:29:51.316Z,99522.34
2023-04-02T08:32:54.033Z,99531.88
2023-04-02T08:35:56.828Z,99532.97
2023-04-02T08:38:59.481Z,99534.38
2023-04-02T08:42:21.519Z,99529.03
2023-04-02T08:45:33.518Z,99537.28
2023-04-02T08:48:40.791Z,99534.41
2023-04-02T08:51:46.359Z,99525.84
2023-04-02T08:54:50.326Z,99533.94
2023-04-02T08:58:22.931Z,99537.78
2023-04-02T09:02:02.870Z,99529.31
2023-04-02T09:05:08.245Z,99537.72
2023-04-02T09:08:26.034Z,99524.00
2023-04-02T09:11:31.776Z,99529.69
2023-04-02T09:15:11.665Z,99526.09
2023-04-02T09:18:17.000Z,99515.19
2023-04-02T09:21:19.813Z,99531.56
2023-04-02T09:24:22.909Z,99527.44
2023-04-02T09:27:29.882Z,99534.81
2023-04-02T09:30:32.408Z,99539.44
2023-04-02T09:33:49.325Z,99547.09
2023-04-02T09:36:52.175Z,99552.31
2023-04-02T09:40:19.783Z,99549.94
2023-04-02T09:43:34.510Z,99565.13
2023-04-02T09:46:37.217Z,99563.34
2023-04-02T09:49:40.862Z,99572.22
2023-04-02T09:52:43.933Z,99570.78
2023-04-02T09:55:47.060Z,99564.19
2023-04-02T09:59:17.022Z,99578.72
2023-04-02T10:02:28.572Z,99573.34
2023-04-02T10:05:40.489Z,99576.53
2023-04-02T10:08:45.638Z,99572.50
2023-04-02T10:11:49.891Z,99566.31
2023-04-02T10:14:53.480Z,99564.81
2023-04-02T10:18:13.570Z,99567.56
2023-04-02T10:21:25.331Z,99566.59
2023-04-02T10:24:29.270Z,99562.72
2023-04-02T10:27:45.928Z,99561.44
2023-04-02T10:31:03.500Z,99556.97
2023-04-02T10:34:18.091Z,99558.41
2023-04-02T10:37:32.922Z,99563.59
2023-04-02T10:40:38.690Z,99562.59
2023-04-02T10:43:50.531Z,99551.78
2023-04-02T10:47:22.844Z,99547.22
2023-04-02T10:50:44.760Z,99551.56
2023-04-02T10:53:47.537Z,99544.47
2023-04-02T10:56:55.902Z,99546.09
2023-04-02T11:00:25.261Z,99541.44
2023-04-02T11:03:41.698Z,99547.72
2023-04-02T11:06:58.071Z,99549.78
2023-04-02T11:10:06.959Z,99559.31
2023-04-02T11:13:21.279Z,99547.66
2023-04-02T11:16:24.173Z,99548.28
2023-04-02T11:19:27.144Z,99535.16
2023-04-02T11:22:29.912Z,99526.59
2023-04-02T11:25:32.653Z,99533.72
2023-04-02T11:28:35.485Z,99516.03
2023-04-02T11:31:38.434Z,99515.81
2023-04-02T11:34:41.553Z,99512.69
2023-04-02T11:37:45.948Z,99512.56
2023-04-02T11:40:56.495Z,99523.72
2023-04-02T11:44:03.035Z,99523.75
2023-04-02T11:47:25.829Z,99509.88
2023-04-02T11:50:35.500Z,99506.56
2023-04-02T11:53:42.941Z,99512.69
2023-04-02T11:56:53.171Z,99518.44
2023-04-02T12:00:08.779Z,99519.97
2023-04-02T12:03:47.518Z,99502.09
2023-04-02T12:07:26.828Z,99498.03
2023-04-02T12:10:34.526Z,99485.53
2023-04-02T12:13:40.653Z,99489.44
2023-04-02T12:16:44.439Z,99487.09
2023-04-02T12:19:53.158Z,99490.97
2023-04-02T12:22:57.788Z,99480.66
2023-04-02T12:26:09.135Z,99479.38
2023-04-02T12:29:25.034Z,99480.03
2023-04-02T12:32:32.296Z,99480.03
2023-04-02T12:35:36.668Z,99492.94
2023-04-02T12:38:52.018Z,99481.84
2023-04-02T12:41:57.392Z,99490.53
2023-04-02T12:45:00.880Z,99476.38
2023-04-02T12:48:06.219Z,99472.31
2023-04-02T12:51:11.324Z,99465.16
2023-04-02T12:54:18.565Z,99468.81
2023-04-02T12:57:27.182Z,99460.31
2023-04-02T13:00:32.088Z,99465.09
2023-04-02T13:03:36.092Z,99468.28
2023-04-02T13:06:48.082Z,99466.97
2023-04-02T13:09:52.664Z,99459.69
2023-04-02T13:12:58.418Z,99467.03
2023-04-02T13:16:21.010Z,99470.41
2023-04-02T13:19:28.745Z,99456.13
2023-04-02T13:22:32.110Z,99459.66
2023-04-02T13:25:36.802Z,99457.66
2023-04-02T13:28:40.312Z,99468.25
2023-04-02T13:31:45.516Z,99472.75
2023-04-02T13:34:48.204Z,99467.31
2023-04-02T13:37:51.726Z,99480.53
2023-04-02T13:40:55.510Z,99481.41
2023-04-02T13:44:01.942Z,99483.63
2023-04-02T13:47:05.143Z,99478.81
2023-04-02T13:50:13.313Z,99458.94
2023-04-02T13:53:31.134Z,99466.25
2023-04-02T13:56:35.788Z,99465.72
2023-04-02T13:59:38.540Z,99478.25
2023-04-02T14:02:47.560Z,99473.66
2023-04-02T14:06:28.100Z,99468.59
2023-04-02T14:10:00.941Z,99466.63
2023-04-02T14:13:46.787Z,99465.38
2023-04-02T14:17:09.456Z,99457.69
2023-04-02T14:20:24.546Z,99468.88
2023-04-02T14:23:44.465Z,99468.34
2023-04-02T14:26:50.070Z,99467.13
2023-04-02T14:30:03.745Z,99470.84
2023-04-02T14:33:21.456Z,99484.16
2023-04-02T14:36:58.003Z,99502.31
2023-04-02T14:40:21.974Z,99505.31
2023-04-02T14:43:45.589Z,99506.63
2023-04-02T14:46:53.746Z,99528.53
2023-04-02T14:50:04.028Z,99528.22
2023-04-02T14:53:18.977Z,99532.84
2023-04-02T14:56:24.786Z,99554.97
2023-04-02T14:59:34.484Z,99556.34
2023-04-02T15:02:37.629Z,99574.47
2023-04-02T15:05:47.336Z,99588.97
2023-04-02T15:09:13.879Z,99587.72
2023-04-02T15:12:26.270Z,99599.97
2023-04-02T15:16:10.897Z,99606.44
2023-04-02T15:19:17.981Z,99610.81
2023-04-02T15:22:36.411Z,99627.16
2023-04-02T15:25:52.004Z,99628.63
2023-04-02T15:29:02.947Z,99639.50
2023-04-02T15:32:38.283Z,99667.63
2023-04-02T15:35:54.353Z,99669.44
2023-04-02T15:39:33.132Z,99669.44
2023-04-02T15:42:43.698Z,99672.66
2023-04-02T15:46:06.124Z,99672.31
2023-04-02T15:49:38.247Z,99668.66
2023-04-02T15:53:07.127Z,99652.16
2023-04-02T15:56:19.008Z,99650.16
2023-04-02T16:00:06.769Z,99644.63
2023-04-02T16:03:37.115Z,99650.81
2023-04-02T16:07:11.176Z,99645.31
2023-04-02T16:10:41.868Z,99642.78
2023-04-02T16:13:47.736Z,99638.03
2023-04-02T16:16:53.136Z,99637.31
2023-04-02T16:20:25.081Z,99639.28
2023-04-02T16:23:41.080Z,99637.69
2023-04-02T16:26:57.932Z,99646.78
2023-04-02T16:30:16.976Z,99654.81
2023-04-02T16:33:41.690Z,99651.94
2023-04-02T16:36:51.720Z,99667.94
2023-04-02T16:40:27.548Z,99677.56
2023-04-02T16:43:52.499Z,99676.09
2023-04-02T16:47:33.682Z,99690.88
2023-04-02T16:50:48.029Z,99696.13
2023-04-02T16:54:06.369Z,99696.22
2023-04-02T16:57:32.206Z,99694.31
2023-04-02T17:00:46.067Z,99696.19
2023-04-02T17:04:18.780Z,99707.78
2023-04-02T17:07:50.872Z,99710.47
2023-04-02T17:11:09.466Z,99732.13
2023-04-02T17:14:25.085Z,99726.38
2023-04-02T17:17:29.403Z,99729.59
2023-04-02T17:20:33.966Z,99727.41
2023-04-02T17:24:14.799Z,99729.69
2023-04-02T17:27:22.918Z,99738.44
2023-04-02T17:30:32.274Z,99741.25
2023-04-02T17:33:35.928Z,99755.53
2023-04-02T17:36:52.716Z,99751.16
2023-04-02T17:40:32.717Z,99762.19
2023-04-02T17:43:45.214Z,99767.00
2023-04-02T17:46:48.696Z,99776.78
2023-04-02T17:50:10.347Z,99779.88
2023-04-02T17:53:29.312Z,99774.72
2023-04-02T17:57:09.791Z,99781.25
2023-04-02T18:00:26.253Z,99789.06
2023-04-02T18:03:49.912Z,99785.53
2023-04-02T18:07:36.112Z,99790.19
2023-04-02T18:10:54.673Z,99798.31
2023-04-02T18:14:07.295Z,99808.66
2023-04-02T18:17:42.466Z,99806.91
2023-04-02T18:21:15.436Z,99829.38
2023-04-02T18:24:55.607Z,99831.81
2023-04-02T18:28:19.233Z,99841.34
2023-04-02T18:31:50.935Z,99843.69
2023-04-02T18:35:23.340Z,99846.22
2023-04-02T18:38:29.970Z,99854.78
2023-04-02T18:42:01.118Z,99848.34
2023-04-02T18:45:50.102Z,99852.56
2023-04-02T18:49:31.407Z,99860.75
2023-04-02T18:52:35.858Z,99871.09
2023-04-02T18:55:46.637Z,99874.25
2023-04-02T18:59:32.316Z,99863.19
2023-04-02T19:02:57.129Z,99884.00
2023-04-02T19:06:05.563Z,99887.03
2023-04-02T19:09:39.081Z,99888.97
2023-04-02T19:12:42.962Z,99897.25
2023-04-02T19:16:01.392Z,99890.16
2023-04-02T19:19:14.119Z,99901.66
2023-04-02T19:22:50.397Z,99907.25
2023-04-02T19:26:10.532Z,99905.03
2023-04-02T19:29:32.933Z,99922.91
2023-04-02T19:33:11.056Z,99919.91
2023-04-02T19:36:32.686Z,99926.28
2023-04-02T19:39:48.514Z,99939.19
2023-04-02T19:42:55.429Z,99943.06
2023-04-02T19:46:02.993Z,99941.09
2023-04-02T19:49:34.274Z,99935.38
2023-04-02T19:52:40.287Z,99942.13
2023-04-02T19:55:45.039Z,99953.75
2023-04-02T19:58:49.119Z,99963.53
2023-04-02T20:01:54.108Z,99960.88
2023-04-02T20:04:57.801Z,99966.31
2023-04-02T20:08:01.528Z,99969.00
2023-04-02T20:11:06.543Z,99972.59
2023-04-02T20:14:17.539Z,99979.47
2023-04-02T20:17:21.529Z,99975.81
2023-04-02T20:20:24.599Z,99978.31
2023-04-02T20:23:28.587Z,99983.34
2023-04-02T20:26:32.505Z,99983.91
2023-04-02T20:29:36.233Z,99991.56
2023-04-02T20:32:39.572Z,100002.91
2023-04-02T20:35:42.681Z,100000.69
2023-04-02T20:38:45.960Z,100012.41
2023-04-02T20:41:49.000Z,100004.28
2023-04-02T20:44:52.243Z,100013.25
2023-04-02T20:47:57.595Z,100026.94
2023-04-02T20:55:16.582Z,100043.66
2023-04-02T20:58:19.619Z,100053.91
2023-04-02T21:01:23.825Z,100061.19
2023-04-02T21:04:28.207Z,100064.47
2023-04-02T21:07:31.192Z,100062.63
2023-04-02T21:10:33.955Z,100060.97
2023-04-02T21:13:37.778Z,100060.69
2023-04-02T21:16:41.692Z,100068.78
2023-04-02T21:19:44.283Z,100084.44
2023-04-02T21:22:46.806Z,100084.69
2023-04-02T21:26:00.959Z,100088.59
2023-04-02T21:29:05.794Z,100082.88
2023-04-02T21:32:18.519Z,100096.41
2023-04-02T21:35:24.051Z,100085.53
2023-04-02T21:38:26.664Z,100086.91
2023-04-02T21:41:36.080Z,100092.47
2023-04-02T21:44:40.063Z,100097.19
2023-04-02T21:47:42.740Z,100102.16
2023-04-02T21:50:45.389Z,100112.41
2023-04-02T21:53:48.090Z,100116.84
2023-04-02T21:56:50.722Z,100127.97
2023-04-02T21:59:56.975Z,100118.03
2023-04-02T22:02:59.737Z,100128.38
2023-04-02T22:06:05.029Z,100128.75
2023-04-02T22:09:11.494Z,100130.94
2023-04-02T22:12:14.374Z,100129.50
2023-04-02T22:15:17.157Z,100142.41
2023-04-02T22:18:19.794Z,100139.47
2023-04-02T22:21:23.103Z,100147.69
2023-04-02T22:24:25.716Z,100141.78
2023-04-02T22:27:29.382Z,100153.47
2023-04-02T22:30:34.126Z,100149.03
2023-04-02T22:33:37.198Z,100160.19
2023-04-02T22:36:39.780Z,100159.22
2023-04-02T22:39:42.318Z,100161.16
2023-04-02T22:42:47.357Z,100168.44
2023-04-02T22:45:51.221Z,100178.78
2023-04-02T22:48:53.868Z,100178.03
2023-04-02T22:51:56.445Z,100180.97
2023-04-02T22:54:59.365Z,100179.94
2023-04-02T22:58:01.859Z,100170.59
2023-04-02T23:01:12.273Z,100184.06
2023-04-02T23:04:14.909Z,100181.69
2023-04-02T23:07:17.626Z,100179.78
2023-04-02T23:10:20.458Z,100181.47
2023-04-02T23:13:23.260Z,100180.75
2023-04-02T23:16:27.927Z,100182.94
2023-04-02T23:19:30.580Z,100189.75
2023-04-02T23:22:33.149Z,100190.69
2023-04-02T23:25:38.297Z,100198.63
2023-04-02T23:28:41.264Z,100200.22
2023-04-02T23:31:43.802Z,100196.72
2023-04-02T23:34:46.411Z,100199.97
2023-04-02T23:37:49.810Z,100203.41
2023-04-02T23:40:53.606Z,100204.75
2023-04-02T23:43:57.645Z,100209.81
2023-04-02T23:47:01.729Z,100206.78
2023-04-02T23:50:04.675Z,100214.25
2023-04-02T23:53:07.331Z,100211.59
2023-04-02T23:56:10.430Z,100213.06
2023-04-02T23:59:12.995Z,100213.06
